Time;durP1;ratioP1;P1;durP2;ratioP2;P2;SDS_P1;SDS_P2;PMS_P1;PMS_P2;Temp;Humidity;BMP_temperature;BMP_pressure;BME280_temperature;BME280_humidity;BME280_pressure;Samples;Min_cycle;Max_cycle;Signal;HPM_P1;HPM_P2
2022/07/23 00:01:47;;;;;;;10.70;5.20;;;20.10;99.90;;;;;;5054659;28;20460;-48
2022/07/23 00:04:14;;;;;;;6.17;5.30;;;20.00;99.90;;;;;;5054358;28;20483;-45
2022/07/23 00:06:41;;;;;;;8.13;4.77;;;20.00;99.90;;;;;;5054314;28;20516;-50
2022/07/23 00:09:08;;;;;;;7.60;5.00;;;19.90;99.90;;;;;;5054371;28;20508;-50
2022/07/23 00:11:35;;;;;;;5.67;5.00;;;19.90;99.90;;;;;;5054708;28;20475;-54
2022/07/23 00:14:01;;;;;;;14.80;5.30;;;19.90;99.90;;;;;;5054099;28;20523;-49
2022/07/23 00:16:28;;;;;;;7.40;5.30;;;19.90;99.90;;;;;;5054345;28;20452;-45
2022/07/23 00:19:01;;;;;;;5.60;4.60;;;19.90;99.90;;;;;;5054623;28;20467;-51
2022/07/23 00:21:27;;;;;;;7.03;4.60;;;20.00;99.90;;;;;;5054494;28;20429;-45
2022/07/23 00:23:54;;;;;;;7.90;5.40;;;20.00;99.90;;;;;;5054197;28;20484;-52
2022/07/23 00:26:21;;;;;;;6.93;5.57;;;20.00;99.90;;;;;;5054372;28;20995;-53
2022/07/23 00:28:48;;;;;;;6.80;4.90;;;19.90;99.90;;;;;;5054348;28;20486;-51
2022/07/23 00:31:15;;;;;;;9.93;5.30;;;19.90;99.90;;;;;;5054589;28;20528;-44
2022/07/23 00:33:44;;;;;;;7.60;5.47;;;19.90;99.90;;;;;;5054078;28;20444;-56
2022/07/23 00:36:13;;;;;;;5.97;5.10;;;19.80;99.90;;;;;;5054389;28;20445;-56
2022/07/23 00:38:42;;;;;;;6.70;4.63;;;19.90;99.90;;;;;;5054434;28;20479;-53
2022/07/23 00:41:09;;;;;;;5.93;4.73;;;19.80;99.90;;;;;;5053914;28;20478;-46
2022/07/23 00:43:35;;;;;;;10.33;5.57;;;19.80;99.90;;;;;;5054172;28;20472;-49
2022/07/23 00:46:02;;;;;;;6.87;4.90;;;19.90;99.90;;;;;;5054377;28;20436;-50
2022/07/23 00:48:29;;;;;;;6.37;4.73;;;19.90;99.90;;;;;;5053179;28;20713;-48
2022/07/23 00:50:56;;;;;;;5.07;4.57;;;19.90;99.90;;;;;;5054006;28;20446;-48
2022/07/23 00:53:24;;;;;;;5.10;4.30;;;19.90;99.90;;;;;;5053880;28;20440;-51
2022/07/23 00:55:52;;;;;;;7.77;5.40;;;19.80;99.90;;;;;;5053943;28;20516;-50
2022/07/23 00:58:19;;;;;;;11.50;5.37;;;19.80;99.90;;;;;;5053402;28;20493;-47
2022/07/23 01:00:46;;;;;;;6.60;5.30;;;19.80;99.90;;;;;;5053637;28;20519;-52
2022/07/23 01:03:13;;;;;;;5.60;4.90;;;19.80;99.90;;;;;;5053816;28;20451;-46
2022/07/23 01:05:46;;;;;;;8.30;5.40;;;19.70;99.90;;;;;;5054277;28;20508;-42
2022/07/23 01:08:23;;;;;;;4.63;4.17;;;19.70;99.90;;;;;;5053848;28;20483;-48
2022/07/23 01:10:52;;;;;;;6.53;5.83;;;19.70;99.90;;;;;;5054489;28;20499;-49
2022/07/23 01:13:19;;;;;;;10.70;4.60;;;19.70;99.90;;;;;;5055064;28;20474;-49
2022/07/23 01:15:46;;;;;;;8.60;5.40;;;19.70;99.90;;;;;;5054371;28;20927;-49
2022/07/23 01:18:12;;;;;;;6.03;4.73;;;19.70;99.90;;;;;;5054603;28;20491;-48
2022/07/23 01:20:39;;;;;;;11.40;5.17;;;19.70;99.90;;;;;;5055141;28;20429;-51
2022/07/23 01:23:08;;;;;;;7.57;5.63;;;19.70;99.90;;;;;;5054586;28;20496;-48
2022/07/23 01:25:34;;;;;;;11.07;5.07;;;19.70;99.90;;;;;;5055223;28;20479;-47
2022/07/23 01:28:01;;;;;;;5.50;4.60;;;19.70;99.90;;;;;;5058283;28;20505;-42
2022/07/23 01:30:31;;;;;;;6.90;5.37;;;19.60;99.90;;;;;;5057630;28;20438;-43
2022/07/23 01:32:58;;;;;;;5.50;4.90;;;19.60;99.90;;;;;;5057881;28;20459;-42
2022/07/23 01:35:35;;;;;;;5.90;4.73;;;19.60;99.90;;;;;;5057660;28;20535;-45
2022/07/23 01:38:02;;;;;;;7.63;5.20;;;19.60;99.90;;;;;;5057314;28;20459;-48
2022/07/23 01:40:30;;;;;;;8.50;5.43;;;19.60;99.90;;;;;;5058024;28;20504;-45
2022/07/23 01:42:57;;;;;;;9.30;5.70;;;19.50;99.90;;;;;;5057522;28;20499;-50
2022/07/23 01:45:24;;;;;;;5.80;5.20;;;19.50;99.90;;;;;;5056823;28;20543;-52
2022/07/23 01:47:51;;;;;;;7.93;6.17;;;19.40;99.90;;;;;;5057210;28;20485;-47
2022/07/23 01:50:18;;;;;;;7.50;5.13;;;19.40;99.90;;;;;;5056979;28;20487;-53
2022/07/23 01:52:44;;;;;;;7.00;5.70;;;19.40;99.90;;;;;;5056668;28;20499;-45
2022/07/23 01:55:11;;;;;;;7.00;5.27;;;19.40;99.90;;;;;;5056629;28;20496;-45
2022/07/23 01:57:39;;;;;;;6.40;5.03;;;19.40;99.90;;;;;;5056812;28;20432;-44
2022/07/23 02:00:07;;;;;;;7.00;5.10;;;19.30;99.90;;;;;;5056922;28;20455;-52
2022/07/23 02:02:34;;;;;;;7.43;5.90;;;19.30;99.90;;;;;;5056829;28;20574;-48
2022/07/23 02:05:01;;;;;;;7.27;4.70;;;19.30;99.90;;;;;;5056544;28;20468;-51
2022/07/23 02:07:42;;;;;;;5.97;5.30;;;19.30;99.90;;;;;;5056769;28;20531;-44
2022/07/23 02:10:09;;;;;;;8.27;5.70;;;19.30;99.90;;;;;;5057576;28;20428;-51
2022/07/23 02:12:36;;;;;;;11.43;6.10;;;19.30;99.90;;;;;;5056959;28;20467;-43
2022/07/23 02:15:05;;;;;;;6.37;5.20;;;19.30;99.90;;;;;;5056881;28;20472;-47
2022/07/23 02:17:32;;;;;;;7.33;5.27;;;19.30;99.90;;;;;;5057242;28;20500;-50
2022/07/23 02:19:59;;;;;;;9.07;5.77;;;19.30;99.90;;;;;;5056836;28;20444;-52
2022/07/23 02:22:26;;;;;;;7.80;5.30;;;19.30;99.90;;;;;;5056658;28;20432;-45
2022/07/23 02:24:52;;;;;;;7.20;5.57;;;19.20;99.90;;;;;;5057188;28;20483;-57
2022/07/23 02:27:19;;;;;;;9.50;5.07;;;19.20;99.90;;;;;;5057263;28;20476;-56
2022/07/23 02:29:46;;;;;;;10.53;5.77;;;19.20;99.90;;;;;;5056454;28;20543;-52
2022/07/23 02:32:14;;;;;;;5.40;4.90;;;19.20;99.90;;;;;;5056650;28;20438;-46
2022/07/23 02:34:41;;;;;;;8.40;5.40;;;19.30;99.90;;;;;;5056003;28;20448;-47
2022/07/23 02:37:09;;;;;;;8.10;4.90;;;19.30;99.90;;;;;;5055588;28;20531;-51
2022/07/23 02:39:54;;;;;;;6.60;4.57;;;19.30;99.90;;;;;;5056445;28;20475;-49
2022/07/23 02:42:21;;;;;;;5.87;5.37;;;19.30;99.90;;;;;;5055930;28;20900;-48
2022/07/23 02:44:50;;;;;;;7.50;5.23;;;19.30;99.90;;;;;;5055679;28;20528;-50
2022/07/23 02:47:18;;;;;;;6.10;5.23;;;19.30;99.90;;;;;;5056466;28;20480;-49
2022/07/23 02:49:45;;;;;;;8.10;6.60;;;19.30;99.90;;;;;;5055991;28;20524;-55
2022/07/23 02:52:12;;;;;;;10.27;4.93;;;19.30;99.90;;;;;;5056174;28;20558;-46
2022/07/23 02:54:39;;;;;;;6.83;5.23;;;19.30;99.90;;;;;;5055836;28;20444;-46
2022/07/23 02:57:08;;;;;;;7.00;5.03;;;19.20;99.90;;;;;;5056522;28;20486;-48
2022/07/23 02:59:35;;;;;;;11.03;5.50;;;19.20;99.90;;;;;;5056534;28;20421;-54
2022/07/23 03:02:01;;;;;;;11.40;5.63;;;19.20;99.90;;;;;;5056045;28;20508;-48
2022/07/23 03:04:31;;;;;;;5.70;5.20;;;19.20;99.90;;;;;;5056597;28;20524;-52
2022/07/23 03:06:58;;;;;;;7.77;5.53;;;19.20;99.90;;;;;;5055862;28;20495;-50
2022/07/23 03:09:25;;;;;;;6.20;4.80;;;19.20;99.90;;;;;;5056564;28;20515;-50
2022/07/23 03:11:53;;;;;;;16.13;5.40;;;19.20;99.90;;;;;;5056636;28;20429;-52
2022/07/23 03:14:20;;;;;;;6.43;4.93;;;19.10;99.90;;;;;;5056793;28;20541;-50
2022/07/23 03:16:49;;;;;;;7.50;4.97;;;19.10;99.90;;;;;;5055823;28;20475;-49
2022/07/23 03:19:16;;;;;;;6.70;4.37;;;19.10;99.90;;;;;;5056102;28;20455;-47
2022/07/23 03:21:44;;;;;;;6.90;4.80;;;19.10;99.90;;;;;;5055963;28;20474;-45
2022/07/23 03:24:11;;;;;;;5.60;5.00;;;19.10;99.90;;;;;;5056122;28;20475;-44
2022/07/23 03:26:38;;;;;;;9.10;5.10;;;19.10;99.90;;;;;;5055922;28;20467;-41
2022/07/23 03:29:05;;;;;;;10.83;5.43;;;19.10;99.90;;;;;;5055977;28;20476;-54
2022/07/23 03:31:32;;;;;;;5.87;4.83;;;19.10;99.90;;;;;;5056017;28;20500;-49
2022/07/23 03:33:59;;;;;;;9.30;4.80;;;19.10;99.90;;;;;;5055439;28;20476;-49
2022/07/23 03:36:26;;;;;;;9.40;5.00;;;19.00;99.90;;;;;;5055208;28;20433;-50
2022/07/23 03:38:54;;;;;;;5.70;4.93;;;19.10;99.90;;;;;;5055099;28;20500;-57
2022/07/23 03:41:22;;;;;;;7.50;5.60;;;19.10;99.90;;;;;;5055689;28;20536;-54
2022/07/23 03:43:48;;;;;;;7.17;4.50;;;19.10;99.90;;;;;;5055213;28;20455;-56
2022/07/23 03:46:15;;;;;;;5.73;4.60;;;19.10;99.90;;;;;;5055602;28;20496;-59
2022/07/23 03:48:42;;;;;;;4.80;4.30;;;19.10;99.90;;;;;;5055001;28;20467;-53
2022/07/23 03:51:09;;;;;;;6.73;4.13;;;19.00;99.90;;;;;;5054713;28;20476;-56
2022/07/23 03:53:36;;;;;;;7.00;4.23;;;19.00;99.90;;;;;;5055002;28;20464;-50
2022/07/23 03:56:04;;;;;;;6.13;4.70;;;19.00;99.90;;;;;;5055567;28;20494;-46
2022/07/23 03:58:31;;;;;;;5.50;4.33;;;19.00;99.90;;;;;;5054493;28;20443;-54
2022/07/23 04:00:58;;;;;;;5.60;4.00;;;18.90;99.90;;;;;;5054574;28;20476;-44
2022/07/23 04:03:24;;;;;;;5.53;3.90;;;18.90;99.90;;;;;;5054673;28;20472;-38
2022/07/23 04:05:51;;;;;;;8.07;3.80;;;18.80;99.90;;;;;;5054590;28;20490;-53
2022/07/23 04:08:20;;;;;;;7.00;4.33;;;18.80;99.90;;;;;;5054302;28;20484;-44
2022/07/23 04:10:46;;;;;;;6.73;3.87;;;18.80;99.90;;;;;;5054533;28;20555;-49
2022/07/23 04:13:15;;;;;;;4.97;3.50;;;18.80;99.90;;;;;;5054636;28;20497;-49
2022/07/23 04:15:41;;;;;;;5.00;3.20;;;18.80;99.90;;;;;;5054411;28;20431;-47
2022/07/23 04:18:11;;;;;;;6.93;3.27;;;18.70;99.90;;;;;;5054311;28;20492;-49
2022/07/23 04:20:38;;;;;;;5.60;3.93;;;18.70;99.90;;;;;;5053893;28;20515;-48
2022/07/23 04:23:05;;;;;;;4.47;3.00;;;18.70;99.90;;;;;;5054315;28;20476;-46
2022/07/23 04:25:31;;;;;;;5.23;2.60;;;18.70;99.90;;;;;;5054245;28;20511;-42
2022/07/23 04:27:58;;;;;;;4.67;3.00;;;18.70;99.90;;;;;;5053915;28;20563;-46
2022/07/23 04:30:26;;;;;;;6.17;3.10;;;18.60;99.90;;;;;;5053923;28;20532;-45
2022/07/23 04:32:53;;;;;;;7.40;3.23;;;18.60;99.90;;;;;;5054084;28;20444;-43
2022/07/23 04:35:20;;;;;;;8.03;3.23;;;18.60;99.90;;;;;;5053958;28;20535;-47
2022/07/23 04:37:49;;;;;;;9.83;3.50;;;18.60;99.90;;;;;;5053897;28;20425;-51
2022/07/23 04:40:16;;;;;;;4.13;3.70;;;18.60;99.90;;;;;;5053220;28;20453;-50
2022/07/23 04:42:42;;;;;;;8.03;3.60;;;18.60;99.90;;;;;;5053297;28;20456;-43
2022/07/23 04:45:10;;;;;;;6.67;4.07;;;18.60;99.90;;;;;;5053601;28;20432;-50
2022/07/23 04:47:38;;;;;;;8.40;3.57;;;18.50;99.90;;;;;;5053474;28;20452;-58
2022/07/23 04:50:05;;;;;;;10.30;3.80;;;18.30;99.90;;;;;;5053457;28;20476;-48
2022/07/23 04:52:32;;;;;;;10.97;2.77;;;18.20;99.90;;;;;;5053774;28;20448;-47
2022/07/23 04:54:59;;;;;;;4.77;3.10;;;18.10;99.90;;;;;;5054230;28;20567;-52
2022/07/23 04:57:26;;;;;;;7.03;3.83;;;18.00;99.90;;;;;;5053644;28;20848;-53
2022/07/23 04:59:53;;;;;;;5.30;2.83;;;17.80;99.90;;;;;;5053354;28;20467;-57
2022/07/23 05:02:19;;;;;;;5.37;3.23;;;17.80;99.90;;;;;;5053434;28;20428;-51
2022/07/23 05:04:49;;;;;;;7.40;2.87;;;17.70;99.90;;;;;;5053538;28;20523;-52
2022/07/23 05:07:16;;;;;;;4.03;3.20;;;17.60;99.90;;;;;;5053766;28;20494;-49
2022/07/23 05:09:43;;;;;;;6.30;3.17;;;17.60;99.90;;;;;;5053562;28;20566;-47
2022/07/23 05:12:10;;;;;;;5.43;3.77;;;17.50;99.90;;;;;;5053472;28;20444;-53
2022/07/23 05:14:37;;;;;;;5.47;3.07;;;17.40;99.90;;;;;;5053914;28;20432;-49
2022/07/23 05:17:13;;;;;;;5.43;3.27;;;17.50;99.90;;;;;;5053264;28;20595;-48
2022/07/23 05:19:40;;;;;;;5.80;3.23;;;17.40;99.90;;;;;;5052542;28;20494;-49
2022/07/23 05:22:08;;;;;;;5.07;3.60;;;17.30;99.90;;;;;;5053747;28;20483;-46
2022/07/23 05:24:35;;;;;;;5.23;3.23;;;17.30;99.90;;;;;;5052511;28;20452;-52
2022/07/23 05:27:01;;;;;;;6.07;3.23;;;17.20;99.90;;;;;;5053346;28;20500;-45
2022/07/23 05:29:28;;;;;;;10.30;4.40;;;17.20;99.90;;;;;;5053459;28;20539;-39
2022/07/23 05:31:55;;;;;;;3.20;2.60;;;17.10;99.90;;;;;;5052385;28;20496;-49
2022/07/23 05:34:22;;;;;;;3.93;3.20;;;17.10;99.90;;;;;;5053428;28;20516;-45
2022/07/23 05:36:49;;;;;;;6.67;3.97;;;17.20;99.90;;;;;;5053833;28;20473;-45
2022/07/23 05:39:17;;;;;;;6.97;3.80;;;17.20;99.90;;;;;;5053886;28;20789;-50
2022/07/23 05:41:44;;;;;;;9.43;3.60;;;17.30;99.90;;;;;;5053781;28;20513;-47
2022/07/23 05:44:11;;;;;;;5.20;4.47;;;17.30;99.90;;;;;;5053673;28;20498;-48
2022/07/23 05:46:38;;;;;;;6.10;3.50;;;17.40;99.90;;;;;;5053428;28;20487;-49
2022/07/23 05:49:05;;;;;;;7.57;3.37;;;17.30;99.90;;;;;;5053581;28;20506;-53
2022/07/23 05:51:32;;;;;;;11.37;3.47;;;17.30;99.90;;;;;;5053821;28;20460;-58
2022/07/23 05:53:58;;;;;;;5.43;3.30;;;17.20;99.90;;;;;;5053814;28;20443;-46
2022/07/23 05:56:27;;;;;;;8.43;3.70;;;17.20;99.90;;;;;;5053551;28;20478;-48
2022/07/23 05:58:53;;;;;;;6.30;3.20;;;17.20;99.90;;;;;;5053318;28;20501;-45
2022/07/23 06:01:23;;;;;;;4.13;3.33;;;17.20;99.90;;;;;;5095847;23;20553;-46
2022/07/23 06:03:50;;;;;;;7.93;3.30;;;17.30;99.90;;;;;;5033520;28;20449;-50
2022/07/23 06:06:16;;;;;;;7.10;4.37;;;17.30;99.90;;;;;;5033968;28;20433;-50
2022/07/23 06:08:43;;;;;;;5.30;3.27;;;17.20;99.90;;;;;;5032849;28;20473;-46
2022/07/23 06:11:10;;;;;;;9.50;3.97;;;17.20;99.90;;;;;;5032964;28;20453;-46
2022/07/23 06:13:38;;;;;;;10.37;3.50;;;17.20;99.90;;;;;;5036360;28;20445;-47
2022/07/23 06:16:05;;;;;;;4.13;3.73;;;17.10;99.90;;;;;;5036739;28;20520;-46
2022/07/23 06:18:32;;;;;;;6.73;3.97;;;17.20;99.90;;;;;;5036508;28;20481;-47
2022/07/23 06:20:59;;;;;;;5.27;3.90;;;17.10;99.90;;;;;;5036270;28;20453;-47
2022/07/23 06:23:26;;;;;;;4.50;4.10;;;17.10;99.90;;;;;;5036767;28;20497;-47
2022/07/23 06:25:53;;;;;;;4.97;3.50;;;17.10;99.90;;;;;;5036569;28;20519;-40
2022/07/23 06:28:20;;;;;;;7.60;4.40;;;17.20;99.90;;;;;;5036473;28;20473;-44
2022/07/23 06:30:48;;;;;;;4.70;4.20;;;17.30;99.90;;;;;;5037860;28;20522;-57
2022/07/23 06:33:15;;;;;;;8.40;4.27;;;17.30;99.90;;;;;;5036887;28;20528;-46
2022/07/23 06:35:43;;;;;;;5.87;5.27;;;17.30;99.90;;;;;;5036661;28;20449;-49
2022/07/23 06:38:10;;;;;;;7.37;4.17;;;17.30;99.90;;;;;;5036292;28;20518;-48
2022/07/23 06:40:37;;;;;;;5.90;3.90;;;17.30;99.90;;;;;;5036294;28;20526;-47
2022/07/23 06:43:04;;;;;;;8.33;4.00;;;17.40;99.90;;;;;;5036408;28;20516;-47
2022/07/23 06:45:31;;;;;;;9.27;4.47;;;17.40;99.90;;;;;;5036896;28;20445;-44
2022/07/23 06:47:59;;;;;;;7.23;3.60;;;17.40;99.90;;;;;;5036424;28;20571;-47
2022/07/23 06:50:26;;;;;;;6.20;4.17;;;17.40;99.90;;;;;;5036554;28;20527;-51
2022/07/23 06:52:53;;;;;;;6.50;3.40;;;17.50;99.90;;;;;;5036345;28;20459;-45
2022/07/23 06:55:20;;;;;;;6.90;4.00;;;17.50;99.90;;;;;;5045156;28;20468;-41
2022/07/23 06:57:46;;;;;;;7.20;5.30;;;17.60;99.90;;;;;;5033910;28;20441;-49
2022/07/23 07:00:14;;;;;;;6.77;4.93;;;17.70;99.90;;;;;;5027696;28;20444;-46
2022/07/23 07:02:41;;;;;;;6.50;4.90;;;17.70;99.90;;;;;;5049781;28;20484;-44
2022/07/23 07:05:09;;;;;;;9.53;4.53;;;17.70;99.90;;;;;;5051736;28;20472;-48
2022/07/23 07:07:36;;;;;;;6.77;4.87;;;17.80;99.90;;;;;;5054479;28;20555;-47
2022/07/23 07:10:03;;;;;;;9.80;4.27;;;17.80;99.90;;;;;;5043738;28;20540;-50
2022/07/23 07:12:30;;;;;;;8.43;4.93;;;17.80;99.90;;;;;;5037018;28;20438;-46
2022/07/23 07:14:57;;;;;;;5.30;4.57;;;17.80;99.90;;;;;;5045961;28;20452;-42
2022/07/23 07:17:24;;;;;;;8.47;3.93;;;17.90;99.90;;;;;;5057177;28;20485;-47
2022/07/23 07:19:53;;;;;;;6.60;4.43;;;17.90;99.90;;;;;;5052468;28;20452;-51
2022/07/23 07:22:22;;;;;;;5.00;4.50;;;17.90;99.90;;;;;;5057345;28;20456;-51
2022/07/23 07:24:48;;;;;;;9.47;5.77;;;17.90;99.90;;;;;;5041458;28;20501;-53
2022/07/23 07:27:15;;;;;;;9.60;7.03;;;17.90;99.90;;;;;;5037168;28;20453;-49
2022/07/23 07:29:44;;;;;;;8.50;6.50;;;17.90;99.90;;;;;;5032124;28;20474;-51
2022/07/23 07:32:11;;;;;;;11.67;7.20;;;17.90;99.90;;;;;;5034325;28;20479;-51
2022/07/23 07:34:38;;;;;;;9.47;6.53;;;17.90;99.90;;;;;;5034826;28;20445;-48
2022/07/23 07:37:05;;;;;;;18.67;7.47;;;17.90;99.90;;;;;;5033745;28;20441;-52
2022/07/23 07:39:33;;;;;;;8.10;6.90;;;17.90;99.90;;;;;;5032906;28;20449;-51
2022/07/23 07:42:00;;;;;;;13.40;6.93;;;18.00;99.90;;;;;;5033409;28;21013;-53
2022/07/23 07:44:26;;;;;;;10.87;7.00;;;18.10;99.90;;;;;;5037092;28;20502;-53
2022/07/23 07:46:53;;;;;;;6.97;5.70;;;18.10;99.90;;;;;;5046612;28;20476;-54
2022/07/23 07:49:21;;;;;;;9.07;5.67;;;18.20;99.90;;;;;;5040309;28;20477;-54
2022/07/23 07:51:49;;;;;;;9.37;7.03;;;18.40;99.90;;;;;;5034463;28;20425;-54
2022/07/23 07:54:16;;;;;;;14.00;7.70;;;18.50;99.90;;;;;;5051921;28;20444;-50
2022/07/23 07:56:45;;;;;;;9.17;7.00;;;18.50;99.90;;;;;;5056886;28;20416;-51
2022/07/23 07:59:11;;;;;;;7.60;6.90;;;18.60;99.90;;;;;;5056644;28;20451;-50
2022/07/23 08:01:38;;;;;;;7.63;6.03;;;18.60;99.90;;;;;;5056255;28;20483;-52
2022/07/23 08:04:05;;;;;;;8.70;6.73;;;18.70;99.90;;;;;;5056459;28;20482;-43
2022/07/23 08:06:32;;;;;;;11.47;6.07;;;18.80;99.90;;;;;;5056329;28;20436;-45
2022/07/23 08:08:59;;;;;;;5.83;4.87;;;18.90;99.90;;;;;;5055938;28;20425;-49
2022/07/23 08:11:26;;;;;;;10.43;6.77;;;18.90;99.90;;;;;;5055966;28;20544;-46
2022/07/23 08:13:54;;;;;;;10.07;6.80;;;19.00;99.90;;;;;;5055564;28;20503;-51
2022/07/23 08:16:21;;;;;;;5.93;5.30;;;19.10;99.90;;;;;;5055519;28;20484;-45
2022/07/23 08:18:47;;;;;;;14.20;6.47;;;19.40;99.90;;;;;;5055387;28;20440;-50
2022/07/23 08:21:14;;;;;;;7.60;6.87;;;19.60;99.90;;;;;;5048347;28;20459;-50
2022/07/23 08:23:41;;;;;;;6.27;5.60;;;20.10;99.90;;;;;;5033772;28;20453;-45
2022/07/23 08:26:11;;;;;;;5.50;4.90;;;20.60;99.90;;;;;;5022991;28;20469;-55
2022/07/23 08:28:40;;;;;;;6.13;5.10;;;20.90;99.90;;;;;;5034931;28;20445;-49
2022/07/23 08:31:08;;;;;;;7.67;4.97;;;21.20;99.90;;;;;;5034429;28;20541;-52
2022/07/23 08:33:37;;;;;;;5.90;4.33;;;22.00;99.90;;;;;;5033138;28;20500;-51
2022/07/23 08:36:06;;;;;;;7.40;4.10;;;22.40;99.90;;;;;;5029254;28;20455;-55
2022/07/23 08:38:33;;;;;;;5.00;3.77;;;22.70;99.90;;;;;;5035524;28;20497;-52
2022/07/23 08:41:00;;;;;;;8.73;5.17;;;22.80;99.90;;;;;;5034646;28;20445;-42
2022/07/23 08:43:29;;;;;;;7.57;4.37;;;22.70;99.90;;;;;;5036441;28;20465;-43
2022/07/23 08:45:58;;;;;;;10.07;4.33;;;22.60;99.90;;;;;;5031936;28;20531;-47
2022/07/23 08:48:29;;;;;;;4.33;3.57;;;22.70;99.90;;;;;;5028049;28;20512;-56
2022/07/23 08:51:00;;;;;;;7.10;3.97;;;23.00;99.90;;;;;;5031460;28;20493;-51
2022/07/23 08:53:28;;;;;;;5.40;3.43;;;23.50;99.90;;;;;;5029908;28;20441;-53
2022/07/23 08:55:57;;;;;;;4.40;2.93;;;24.40;99.90;;;;;;5033728;28;20464;-52
2022/07/23 08:58:24;;;;;;;9.00;3.97;;;25.40;99.90;;;;;;5039586;28;20455;-57
2022/07/23 09:00:51;;;;;;;8.37;4.00;;;26.10;99.90;;;;;;5053650;28;20517;-43
2022/07/23 09:03:21;;;;;;;5.30;3.13;;;26.90;99.90;;;;;;5045534;28;20487;-57
2022/07/23 09:05:51;;;;;;;4.87;3.27;;;27.70;99.90;;;;;;5034347;28;20428;-48
2022/07/23 09:08:21;;;;;;;3.70;3.40;;;28.50;99.90;;;;;;5035457;28;20492;-50
2022/07/23 09:10:51;;;;;;;4.30;3.10;;;28.80;99.90;;;;;;5036044;28;20512;-39
2022/07/23 09:13:33;;;;;;;6.50;3.67;;;28.60;99.90;;;;;;5033286;28;20484;-51
2022/07/23 09:16:01;;;;;;;3.70;3.30;;;28.20;99.90;;;;;;5034848;28;20441;-50
2022/07/23 09:18:34;;;;;;;4.43;3.27;;;28.20;99.90;;;;;;5032036;28;20528;-56
2022/07/23 09:21:24;;;;;;;4.50;3.33;;;28.20;99.90;;;;;;5027578;28;20523;-57
2022/07/23 09:23:54;;;;;;;6.90;3.10;;;28.50;99.90;;;;;;5025387;28;20457;-45
2022/07/23 09:26:23;;;;;;;4.17;3.07;;;28.80;99.90;;;;;;5036426;28;20552;-50
2022/07/23 09:29:00;;;;;;;5.97;3.60;;;29.10;99.10;;;;;;5035527;28;20504;-57
2022/07/23 09:31:33;;;;;;;5.67;3.43;;;28.90;97.90;;;;;;5035468;28;20534;-53
2022/07/23 09:34:08;;;;;;;3.80;2.97;;;28.10;99.10;;;;;;5034896;28;20417;-51
2022/07/23 09:36:37;;;;;;;4.47;3.40;;;27.40;99.90;;;;;;5035235;28;20441;-52
2022/07/23 09:39:05;;;;;;;7.00;3.37;;;26.70;99.90;;;;;;5033588;28;20552;-48
2022/07/23 09:41:37;;;;;;;5.47;3.90;;;26.10;99.90;;;;;;5034558;28;20505;-47
2022/07/23 09:44:12;;;;;;;7.30;3.63;;;25.60;99.90;;;;;;5034757;28;20448;-49
2022/07/23 09:46:43;;;;;;;6.50;3.83;;;25.30;99.90;;;;;;5035710;28;20468;-56
2022/07/23 09:49:18;;;;;;;7.13;3.90;;;25.60;99.90;;;;;;5038624;28;20445;-53
2022/07/23 09:51:56;;;;;;;7.10;4.07;;;25.90;99.90;;;;;;5038305;28;20548;-51
2022/07/23 09:54:30;;;;;;;4.77;3.43;;;26.10;99.90;;;;;;5038799;28;20489;-43
2022/07/23 09:56:59;;;;;;;5.53;3.73;;;26.10;99.90;;;;;;5038406;28;20500;-52
2022/07/23 09:59:28;;;;;;;5.00;3.53;;;26.30;99.90;;;;;;5034199;28;20437;-45
2022/07/23 10:01:57;;;;;;;4.77;3.60;;;27.10;99.90;;;;;;5032641;28;20488;-50
2022/07/23 10:04:24;;;;;;;10.50;3.80;;;27.80;99.90;;;;;;5036000;28;20480;-51
2022/07/23 10:06:56;;;;;;;7.37;3.73;;;28.40;99.40;;;;;;5037438;28;20476;-51
2022/07/23 10:09:26;;;;;;;4.53;3.57;;;28.90;99.50;;;;;;5038218;28;20520;-45
2022/07/23 10:12:09;;;;;;;6.90;3.90;;;28.90;96.90;;;;;;5037870;28;20468;-49
2022/07/23 10:14:35;;;;;;;5.40;3.97;;;29.20;96.70;;;;;;5038385;28;20421;-48
2022/07/23 10:17:03;;;;;;;5.20;3.87;;;28.70;96.00;;;;;;5038265;28;20509;-49
2022/07/23 10:19:31;;;;;;;5.63;4.00;;;28.10;95.80;;;;;;5038371;28;20461;-49
2022/07/23 10:22:02;;;;;;;5.73;3.73;;;27.70;96.60;;;;;;5037641;28;20489;-51
2022/07/23 10:24:46;;;;;;;7.87;3.60;;;27.60;96.80;;;;;;5037792;28;20441;-43
2022/07/23 10:27:34;;;;;;;6.10;3.60;;;27.30;97.20;;;;;;5037686;28;20444;-50
2022/07/23 10:30:06;;;;;;;4.80;4.07;;;27.00;96.70;;;;;;5028272;28;20496;-46
2022/07/23 10:32:46;;;;;;;4.07;3.73;;;26.70;97.80;;;;;;5033755;28;20480;-41
2022/07/23 10:35:26;;;;;;;5.20;2.93;;;26.90;99.90;;;;;;5016437;28;20528;-43
2022/07/23 10:37:58;;;;;;;4.17;3.70;;;27.20;99.60;;;;;;5017387;28;20453;-40
2022/07/23 10:40:26;;;;;;;4.00;3.50;;;27.10;97.80;;;;;;5016953;28;20423;-43
2022/07/23 10:42:59;;;;;;;7.50;3.67;;;26.80;99.00;;;;;;5016839;28;20476;-38
2022/07/23 10:45:28;;;;;;;10.03;5.10;;;26.50;99.90;;;;;;5017234;28;20430;-47
2022/07/23 10:47:56;;;;;;;8.20;3.87;;;26.20;99.50;;;;;;5037302;28;20472;-43
2022/07/23 10:50:27;;;;;;;6.43;3.90;;;25.90;99.90;;;;;;5036957;28;20464;-41
2022/07/23 10:53:19;;;;;;;5.80;4.17;;;25.60;99.90;;;;;;5037011;28;20437;-40
2022/07/23 10:55:48;;;;;;;3.70;3.30;;;25.40;99.90;;;;;;5035687;28;20460;-51
2022/07/23 10:58:20;;;;;;;4.27;3.87;;;25.50;99.90;;;;;;5034911;28;20450;-38
2022/07/23 11:00:47;;;;;;;5.17;3.60;;;25.40;99.90;;;;;;5036546;28;20467;-42
2022/07/23 11:03:36;;;;;;;11.17;3.53;;;25.30;99.90;;;;;;5038090;28;20506;-48
2022/07/23 11:06:06;;;;;;;3.47;2.80;;;25.40;99.90;;;;;;5038206;28;20520;-42
2022/07/23 11:08:34;;;;;;;5.00;3.00;;;25.20;99.90;;;;;;5036764;28;20472;-47
2022/07/23 11:11:13;;;;;;;7.20;4.07;;;25.10;99.90;;;;;;5035653;28;20524;-55
2022/07/23 11:13:46;;;;;;;4.43;3.70;;;25.00;99.90;;;;;;5037414;28;20479;-50
2022/07/23 11:16:25;;;;;;;3.70;3.40;;;25.00;99.90;;;;;;5036326;28;20437;-42
2022/07/23 11:19:01;;;;;;;3.50;3.20;;;25.30;99.90;;;;;;5036938;28;20483;-42
2022/07/23 11:21:58;;;;;;;4.90;4.03;;;25.40;99.90;;;;;;5037015;28;20492;-52
2022/07/23 11:24:27;;;;;;;6.70;3.50;;;25.80;99.90;;;;;;5026872;28;20444;-55
2022/07/23 11:27:04;;;;;;;4.67;3.23;;;26.00;99.90;;;;;;5028261;28;20476;-41
2022/07/23 11:29:48;;;;;;;4.07;3.67;;;26.10;99.90;;;;;;5036106;28;20441;-48
2022/07/23 11:32:28;;;;;;;7.80;4.20;;;26.30;99.90;;;;;;5036930;28;20504;-47
2022/07/23 11:34:55;;;;;;;4.20;3.80;;;26.50;99.90;;;;;;5036671;28;20513;-50
2022/07/23 11:37:33;;;;;;;4.90;4.10;;;26.50;99.90;;;;;;5036499;28;20452;-46
2022/07/23 11:40:04;;;;;;;4.60;3.60;;;26.50;99.30;;;;;;5037218;28;20509;-41
2022/07/23 11:42:31;;;;;;;4.63;4.07;;;26.20;99.90;;;;;;5036913;28;20413;-52
2022/07/23 11:44:58;;;;;;;5.27;3.00;;;26.20;99.90;;;;;;5036496;28;20460;-55
2022/07/23 11:47:27;;;;;;;5.53;3.37;;;26.20;99.90;;;;;;5036389;28;20476;-48
2022/07/23 11:49:55;;;;;;;7.70;3.60;;;26.10;99.90;;;;;;5036170;28;20446;-44
2022/07/23 11:52:23;;;;;;;6.33;3.50;;;25.90;99.40;;;;;;5035825;28;20532;-42
2022/07/23 11:54:51;;;;;;;4.10;3.80;;;25.60;99.90;;;;;;5035792;28;20472;-51
2022/07/23 11:57:22;;;;;;;6.73;3.47;;;25.40;99.90;;;;;;5036282;28;20455;-48
2022/07/23 11:59:53;;;;;;;5.77;4.17;;;25.60;99.90;;;;;;5036037;28;20437;-46
2022/07/23 12:02:21;;;;;;;5.37;3.40;;;25.80;99.90;;;;;;5035965;28;20516;-53
2022/07/23 12:04:50;;;;;;;3.90;3.50;;;25.80;99.90;;;;;;5035883;28;20445;-46
2022/07/23 12:07:34;;;;;;;3.70;3.37;;;25.80;99.90;;;;;;5035437;28;20473;-51
2022/07/23 12:10:05;;;;;;;5.20;4.07;;;25.90;99.90;;;;;;5035344;28;20465;-48
2022/07/23 12:12:38;;;;;;;7.10;3.90;;;26.00;99.70;;;;;;5035477;28;20968;-42
2022/07/23 12:15:07;;;;;;;4.50;3.40;;;25.90;99.90;;;;;;5036054;28;20481;-48
2022/07/23 12:17:35;;;;;;;11.33;3.80;;;25.60;99.70;;;;;;5036032;28;20440;-47
2022/07/23 12:20:05;;;;;;;7.90;3.80;;;25.40;99.90;;;;;;5035819;28;20445;-47
2022/07/23 12:22:37;;;;;;;9.00;4.60;;;25.30;99.90;;;;;;5035971;28;20445;-45
2022/07/23 12:25:07;;;;;;;5.17;4.10;;;25.10;99.90;;;;;;5035048;28;20438;-53
2022/07/23 12:27:34;;;;;;;4.20;3.30;;;25.00;99.90;;;;;;5035882;28;20461;-42
2022/07/23 12:33:16;;;;;;;6.37;3.90;;;24.90;99.90;;;;;;5088593;27;20498;-47
2022/07/23 12:35:51;;;;;;;3.77;3.10;;;25.00;99.90;;;;;;5088643;28;20435;-51
2022/07/23 12:38:22;;;;;;;4.70;3.80;;;25.10;99.90;;;;;;5088648;28;20423;-49
2022/07/23 12:40:59;;;;;;;5.40;4.30;;;25.20;99.90;;;;;;5088600;28;20465;-47
2022/07/23 12:43:27;;;;;;;4.20;3.77;;;25.10;99.90;;;;;;5088628;28;20442;-51
2022/07/23 12:46:02;;;;;;;4.37;4.00;;;25.10;99.90;;;;;;5088361;28;20443;-49
2022/07/23 12:48:33;;;;;;;4.37;3.50;;;25.10;99.90;;;;;;5088185;28;20474;-49
2022/07/23 12:51:02;;;;;;;4.63;4.03;;;25.20;99.90;;;;;;5088357;28;20483;-51
2022/07/23 12:53:31;;;;;;;4.43;3.97;;;25.30;99.90;;;;;;5088347;27;20475;-42
2022/07/23 12:56:01;;;;;;;6.13;3.50;;;25.20;99.90;;;;;;5088305;28;20483;-40
2022/07/23 12:58:39;;;;;;;3.90;3.53;;;25.20;99.90;;;;;;5088017;28;20443;-46